createdAt,value
2022-11-20T00:00:23.458Z,2.60
2022-11-20T00:02:51.125Z,2.70
2022-11-20T00:05:19.145Z,3.20
2022-11-20T00:07:48.543Z,3.30
2022-11-20T00:10:16.277Z,3.50
2022-11-20T00:12:43.964Z,3.50
2022-11-20T00:15:11.962Z,3.60
2022-11-20T00:17:39.646Z,3.70
2022-11-20T00:20:07.772Z,3.90
2022-11-20T00:22:35.482Z,4.10
2022-11-20T00:25:04.769Z,4.20
2022-11-20T00:27:32.446Z,4.40
2022-11-20T00:30:00.151Z,4.40
2022-11-20T00:32:27.968Z,4.50
2022-11-20T00:34:55.630Z,4.60
2022-11-20T00:37:23.316Z,4.60
2022-11-20T00:39:50.990Z,4.60
2022-11-20T00:42:20.025Z,4.60
2022-11-20T00:44:47.716Z,4.70
2022-11-20T00:47:15.378Z,4.80
2022-11-20T00:49:43.069Z,4.90
2022-11-20T00:52:10.770Z,4.90
2022-11-20T00:54:38.494Z,4.90
2022-11-20T00:57:06.149Z,4.90
2022-11-20T00:59:35.183Z,4.70
2022-11-20T01:02:02.838Z,4.60
2022-11-20T01:04:30.633Z,4.30
2022-11-20T01:06:58.296Z,3.90
2022-11-20T01:09:25.988Z,4.00
2022-11-20T01:11:53.656Z,4.20
2022-11-20T01:14:21.804Z,4.30
2022-11-20T01:16:52.110Z,4.40
2022-11-20T01:19:21.106Z,4.60
2022-11-20T01:21:50.426Z,4.70
2022-11-20T01:24:19.296Z,4.80
2022-11-20T01:26:48.963Z,4.90
2022-11-20T01:29:17.516Z,4.90
2022-11-20T01:31:45.636Z,4.90
2022-11-20T01:34:15.634Z,5.00
2022-11-20T01:36:43.885Z,5.00
2022-11-20T01:39:13.261Z,5.00
2022-11-20T01:41:58.682Z,5.00
2022-11-20T01:44:41.240Z,5.10
2022-11-20T01:47:10.018Z,5.10
2022-11-20T01:49:40.873Z,5.20
2022-11-20T01:52:11.345Z,5.20
2022-11-20T01:54:42.360Z,5.30
2022-11-20T01:57:11.815Z,5.30
2022-11-20T01:59:41.880Z,5.10
2022-11-20T02:02:09.531Z,5.00
2022-11-20T02:04:37.459Z,5.00
2022-11-20T02:07:06.795Z,5.10
2022-11-20T02:09:34.496Z,4.90
2022-11-20T02:12:02.305Z,4.60
2022-11-20T02:14:29.090Z,4.80
2022-11-20T02:16:57.113Z,4.90
2022-11-20T02:19:26.513Z,4.80
2022-11-20T02:21:58.540Z,4.90
2022-11-20T02:24:27.640Z,4.90
2022-11-20T02:26:56.430Z,5.00
2022-11-20T02:29:27.345Z,5.00
2022-11-20T02:32:02.341Z,4.90
2022-11-20T02:34:30.289Z,4.80
2022-11-20T02:36:58.476Z,4.80
2022-11-20T02:39:28.963Z,4.80
2022-11-20T02:41:57.638Z,4.80
2022-11-20T02:44:25.598Z,4.80
2022-11-20T02:46:53.299Z,4.90
2022-11-20T02:49:21.409Z,5.00
2022-11-20T02:51:49.357Z,5.10
2022-11-20T02:54:17.051Z,5.00
2022-11-20T02:56:46.088Z,5.00
2022-11-20T02:59:13.759Z,5.00
2022-11-20T03:01:41.485Z,4.60
2022-11-20T03:04:09.209Z,4.70
2022-11-20T03:06:37.072Z,4.80
2022-11-20T03:09:04.778Z,4.90
2022-11-20T03:11:32.786Z,5.00
2022-11-20T03:14:04.552Z,5.10
2022-11-20T03:16:32.698Z,5.20
2022-11-20T03:19:00.584Z,5.30
2022-11-20T03:21:28.265Z,5.30
2022-11-20T03:23:56.277Z,5.30
2022-11-20T03:26:25.517Z,5.30
2022-11-20T03:28:54.292Z,5.40
2022-11-20T03:31:24.752Z,5.30
2022-11-20T03:33:52.588Z,5.10
2022-11-20T03:36:20.824Z,5.00
2022-11-20T03:38:48.668Z,5.10
2022-11-20T03:41:17.298Z,5.20
2022-11-20T03:43:48.505Z,5.20
2022-11-20T03:46:16.169Z,5.20
2022-11-20T03:48:51.148Z,5.30
2022-11-20T03:51:20.747Z,5.00
2022-11-20T03:53:49.087Z,4.80
2022-11-20T03:56:18.220Z,4.80
2022-11-20T03:58:46.055Z,5.00
2022-11-20T04:01:14.575Z,5.00
2022-11-20T04:03:43.339Z,5.00
2022-11-20T04:06:13.811Z,5.00
2022-11-20T04:08:42.246Z,4.90
2022-11-20T04:11:10.677Z,5.00
2022-11-20T04:13:38.390Z,5.00
2022-11-20T04:16:06.162Z,5.00
2022-11-20T04:18:33.936Z,5.00
2022-11-20T04:21:01.907Z,5.00
2022-11-20T04:23:31.139Z,5.10
2022-11-20T04:26:03.209Z,5.10
2022-11-20T04:28:30.871Z,5.00
2022-11-20T04:31:03.798Z,4.90
2022-11-20T04:33:34.192Z,4.80
2022-11-20T04:36:03.815Z,4.60
2022-11-20T04:38:33.164Z,4.60
2022-11-20T04:41:01.121Z,4.40
2022-11-20T04:43:29.278Z,4.20
2022-11-20T04:45:57.473Z,4.30
2022-11-20T04:48:25.314Z,4.50
2022-11-20T04:50:53.405Z,4.60
2022-11-20T04:53:21.590Z,4.80
2022-11-20T04:55:50.680Z,5.00
2022-11-20T04:58:18.458Z,4.90
2022-11-20T05:00:46.145Z,5.10
2022-11-20T05:03:13.826Z,5.20
2022-11-20T05:05:41.502Z,5.30
2022-11-20T05:08:09.158Z,5.10
2022-11-20T05:10:36.841Z,5.20
2022-11-20T05:13:05.865Z,5.20
2022-11-20T05:15:34.191Z,5.10
2022-11-20T05:18:01.954Z,5.00
2022-11-20T05:20:29.693Z,5.10
2022-11-20T05:22:58.350Z,5.20
2022-11-20T05:25:26.275Z,5.20
2022-11-20T05:27:54.917Z,5.10
2022-11-20T05:30:23.959Z,5.10
2022-11-20T05:32:51.649Z,5.10
2022-11-20T05:35:19.346Z,5.20
2022-11-20T05:37:46.992Z,5.30
2022-11-20T05:40:15.139Z,5.30
2022-11-20T05:42:44.592Z,5.30
2022-11-20T05:45:12.253Z,5.40
2022-11-20T05:47:41.293Z,5.50
2022-11-20T05:50:09.357Z,5.60
2022-11-20T05:52:37.035Z,5.50
2022-11-20T05:55:04.936Z,5.40
2022-11-20T05:57:32.814Z,5.30
2022-11-20T06:00:00.494Z,5.30
2022-11-20T06:02:28.209Z,5.40
2022-11-20T06:04:57.300Z,5.50
2022-11-20T06:07:25.010Z,5.40
2022-11-20T06:09:52.719Z,5.40
2022-11-20T06:12:20.398Z,5.50
2022-11-20T06:14:48.081Z,5.40
2022-11-20T06:17:15.782Z,5.40
2022-11-20T06:19:43.473Z,5.40
2022-11-20T06:22:12.492Z,5.50
2022-11-20T06:24:40.170Z,5.40
2022-11-20T06:27:07.869Z,5.50
2022-11-20T06:29:35.647Z,5.60
2022-11-20T06:32:03.342Z,5.60
2022-11-20T06:34:31.073Z,5.60
2022-11-20T06:36:58.770Z,5.60
2022-11-20T06:39:27.802Z,5.50
2022-11-20T06:41:58.720Z,5.50
2022-11-20T06:44:26.836Z,5.50
2022-11-20T06:46:54.512Z,5.40
2022-11-20T06:49:22.450Z,5.40
2022-11-20T06:51:50.254Z,5.30
2022-11-20T06:54:17.937Z,5.20
2022-11-20T06:56:49.921Z,5.30
2022-11-20T06:59:17.608Z,5.30
2022-11-20T07:01:45.296Z,5.40
2022-11-20T07:04:13.078Z,5.40
2022-11-20T07:06:40.765Z,5.40
2022-11-20T07:09:12.605Z,5.20
2022-11-20T07:11:40.613Z,5.20
2022-11-20T07:14:09.633Z,5.30
2022-11-20T07:16:37.306Z,5.30
2022-11-20T07:19:05.030Z,5.50
2022-11-20T07:21:32.718Z,5.50
2022-11-20T07:24:00.497Z,5.60
2022-11-20T07:26:28.224Z,5.60
2022-11-20T07:28:56.134Z,5.50
2022-11-20T07:31:25.369Z,5.40
2022-11-20T07:33:53.068Z,5.40
2022-11-20T07:36:20.746Z,5.50
2022-11-20T07:38:48.404Z,5.50
2022-11-20T07:41:16.689Z,5.70
2022-11-20T07:43:44.453Z,5.70
2022-11-20T07:46:12.133Z,5.80
2022-11-20T07:48:41.541Z,5.90
2022-11-20T07:51:09.587Z,5.40
2022-11-20T07:53:37.268Z,5.10
2022-11-20T07:56:05.387Z,5.00
2022-11-20T07:58:35.258Z,4.70
2022-11-20T08:01:06.377Z,4.40
2022-11-20T08:03:34.121Z,4.30
2022-11-20T08:06:03.472Z,4.20
2022-11-20T08:08:33.814Z,4.20
2022-11-20T08:11:16.192Z,4.00
2022-11-20T08:14:01.695Z,3.90
2022-11-20T08:16:29.403Z,3.80
2022-11-20T08:18:57.213Z,3.80
2022-11-20T08:21:26.260Z,3.70
2022-11-20T08:23:53.943Z,3.60
2022-11-20T08:26:22.742Z,3.60
2022-11-20T08:28:50.431Z,3.60
2022-11-20T08:31:18.095Z,3.60
2022-11-20T08:33:45.795Z,3.60
2022-11-20T08:36:13.511Z,3.60
2022-11-20T08:38:42.548Z,3.70
2022-11-20T08:41:28.850Z,3.80
2022-11-20T08:43:57.741Z,4.00
2022-11-20T08:46:26.023Z,4.00
2022-11-20T08:48:54.017Z,4.10
2022-11-20T08:51:22.194Z,4.10
2022-11-20T08:53:51.233Z,4.10
2022-11-20T08:56:19.056Z,4.20
2022-11-20T08:59:16.549Z,4.30
2022-11-20T09:01:34.463Z,4.40
2022-11-20T09:04:02.167Z,4.50
2022-11-20T09:06:29.882Z,4.40
2022-11-20T09:09:03.445Z,4.50
2022-11-20T09:11:34.010Z,4.50
2022-11-20T09:14:03.599Z,4.50
2022-11-20T09:16:31.326Z,4.50
2022-11-20T09:19:20.599Z,4.40
2022-11-20T09:21:46.652Z,4.60
2022-11-20T09:24:15.656Z,4.70
2022-11-20T09:26:43.365Z,4.70
2022-11-20T09:29:11.702Z,4.70
2022-11-20T09:31:39.388Z,4.70
2022-11-20T09:34:07.061Z,4.80
2022-11-20T09:36:34.747Z,4.90
2022-11-20T09:39:02.517Z,4.90
2022-11-20T09:41:48.801Z,5.00
2022-11-20T09:44:22.898Z,5.00
2022-11-20T09:46:55.385Z,5.00
2022-11-20T09:49:32.635Z,5.00
2022-11-20T09:52:01.313Z,5.00
2022-11-20T09:54:31.273Z,5.10
2022-11-20T09:57:01.106Z,5.20
2022-11-20T09:59:34.266Z,5.10
2022-11-20T10:02:02.998Z,5.10
2022-11-20T10:04:36.792Z,5.10
2022-11-20T10:07:31.372Z,5.20
2022-11-20T10:09:57.641Z,5.10
2022-11-20T10:12:31.638Z,4.90
2022-11-20T10:15:07.701Z,4.70
2022-11-20T10:17:47.106Z,4.70
2022-11-20T10:20:18.404Z,4.70
2022-11-20T10:22:51.408Z,4.70
2022-11-20T10:25:20.675Z,4.60
2022-11-20T10:27:58.383Z,4.70
2022-11-20T10:30:26.360Z,4.70
2022-11-20T10:32:56.091Z,4.60
2022-11-20T10:35:26.367Z,4.70
2022-11-20T10:37:56.262Z,4.60
2022-11-20T10:40:27.720Z,4.70
2022-11-20T10:42:57.926Z,4.80
2022-11-20T10:45:38.605Z,4.70
2022-11-20T10:48:14.238Z,4.70
2022-11-20T10:50:47.215Z,4.60
2022-11-20T10:53:19.794Z,4.60
2022-11-20T10:55:51.247Z,4.70
2022-11-20T10:58:22.648Z,4.70
2022-11-20T11:00:50.411Z,4.70
2022-11-20T11:03:24.443Z,4.70
2022-11-20T11:05:52.975Z,4.70
2022-11-20T11:08:21.183Z,4.70
2022-11-20T11:10:53.214Z,4.70
2022-11-20T11:13:22.938Z,4.80
2022-11-20T11:15:50.889Z,4.90
2022-11-20T11:18:25.672Z,5.00
2022-11-20T11:20:54.874Z,5.00
2022-11-20T11:23:33.989Z,5.00
2022-11-20T11:26:02.502Z,5.10
2022-11-20T11:28:31.573Z,5.10
2022-11-20T11:30:59.291Z,5.20
2022-11-20T11:33:28.032Z,5.20
2022-11-20T11:35:58.263Z,5.30
2022-11-20T11:38:30.775Z,5.20
2022-11-20T11:40:58.785Z,5.10
2022-11-20T11:43:45.621Z,5.00
2022-11-20T11:46:26.417Z,5.20
2022-11-20T11:48:58.149Z,5.30
2022-11-20T11:51:30.059Z,5.30
2022-11-20T11:53:58.567Z,5.30
2022-11-20T11:56:26.444Z,5.40
2022-11-20T11:58:56.105Z,5.50
2022-11-20T12:01:29.146Z,5.50
2022-11-20T12:04:00.831Z,5.60
2022-11-20T12:06:32.319Z,5.70
2022-11-20T12:09:03.273Z,5.90
2022-11-20T12:11:33.209Z,5.90
2022-11-20T12:14:05.128Z,5.90
2022-11-20T12:16:36.730Z,6.00
2022-11-20T12:19:08.966Z,6.00
2022-11-20T12:21:40.494Z,6.20
2022-11-20T12:24:15.480Z,6.30
2022-11-20T12:26:50.005Z,6.40
2022-11-20T12:29:22.005Z,6.40
2022-11-20T12:31:59.474Z,6.40
2022-11-20T12:34:37.893Z,6.30
2022-11-20T12:37:11.826Z,6.10
2022-11-20T12:39:42.740Z,6.20
2022-11-20T12:42:42.840Z,6.30
2022-11-20T12:45:32.304Z,6.20
2022-11-20T12:48:24.209Z,6.10
2022-11-20T12:51:14.519Z,6.20
2022-11-20T12:53:46.719Z,6.20
2022-11-20T12:56:23.123Z,6.00
2022-11-20T12:58:56.512Z,5.90
2022-11-20T13:01:46.786Z,5.70
2022-11-20T13:04:26.649Z,5.70
2022-11-20T13:06:54.683Z,5.70
2022-11-20T13:09:24.334Z,5.80
2022-11-20T13:11:55.187Z,5.70
2022-11-20T13:14:28.638Z,5.80
2022-11-20T13:17:02.089Z,5.80
2022-11-20T13:19:34.521Z,5.80
2022-11-20T13:22:02.407Z,5.80
2022-11-20T13:24:31.653Z,5.80
2022-11-20T13:27:03.307Z,5.60
2022-11-20T13:29:31.110Z,5.60
2022-11-20T13:32:07.953Z,5.60
2022-11-20T13:34:37.886Z,5.50
2022-11-20T13:37:05.693Z,5.50
2022-11-20T13:39:34.414Z,5.40
2022-11-20T13:42:02.845Z,5.40
2022-11-20T13:44:35.256Z,5.30
2022-11-20T13:47:03.101Z,5.30
2022-11-20T13:49:33.433Z,5.30
2022-11-20T13:52:10.182Z,5.20
2022-11-20T13:54:53.968Z,5.30
2022-11-20T13:57:36.078Z,5.30
2022-11-20T14:00:07.600Z,5.50
2022-11-20T14:02:35.342Z,5.50
2022-11-20T14:05:03.673Z,5.60
2022-11-20T14:07:38.049Z,5.70
2022-11-20T14:10:06.441Z,5.80
2022-11-20T14:12:34.887Z,5.80
2022-11-20T14:15:02.590Z,5.80
2022-11-20T14:17:32.371Z,5.70
2022-11-20T14:20:04.154Z,5.70
2022-11-20T14:22:31.861Z,5.80
2022-11-20T14:25:05.811Z,6.00
2022-11-20T14:27:35.358Z,6.00
2022-11-20T14:30:03.692Z,5.90
2022-11-20T14:32:32.503Z,6.00
2022-11-20T14:35:03.297Z,6.00
2022-11-20T14:37:35.830Z,6.00
2022-11-20T14:40:07.064Z,6.00
2022-11-20T14:42:35.625Z,6.00
2022-11-20T14:45:03.867Z,6.10
2022-11-20T14:47:32.489Z,6.10
2022-11-20T14:50:04.522Z,6.10
2022-11-20T14:52:34.972Z,6.10
2022-11-20T14:55:02.678Z,6.00
2022-11-20T14:57:32.609Z,6.10
2022-11-20T15:00:08.081Z,6.10
2022-11-20T15:02:36.029Z,6.10
2022-11-20T15:05:04.518Z,6.10
2022-11-20T15:07:33.071Z,6.10
2022-11-20T15:10:01.545Z,6.10
2022-11-20T15:12:29.372Z,6.10
2022-11-20T15:14:58.456Z,6.00
2022-11-20T15:17:26.275Z,6.00
2022-11-20T15:19:54.954Z,6.00
2022-11-20T15:22:22.645Z,6.00
2022-11-20T15:24:50.314Z,5.90
2022-11-20T15:27:18.048Z,5.90
2022-11-20T15:29:45.738Z,6.00
2022-11-20T15:32:22.788Z,6.00
2022-11-20T15:34:50.497Z,5.90
2022-11-20T15:37:18.220Z,6.00
2022-11-20T15:39:45.914Z,6.00
2022-11-20T15:42:13.609Z,6.00
2022-11-20T15:44:41.327Z,6.00
2022-11-20T15:47:10.639Z,6.00
2022-11-20T15:49:39.684Z,6.00
2022-11-20T15:52:07.418Z,6.10
2022-11-20T15:54:35.117Z,6.20
2022-11-20T15:57:03.832Z,6.20
2022-11-20T15:59:31.947Z,6.20
2022-11-20T16:01:59.700Z,6.20
2022-11-20T16:04:27.524Z,6.10
2022-11-20T16:06:57.163Z,6.10
2022-11-20T16:09:24.862Z,6.20
2022-11-20T16:11:52.549Z,6.20
2022-11-20T16:14:37.693Z,6.20
2022-11-20T16:17:05.493Z,6.20
2022-11-20T16:19:33.189Z,6.20
2022-11-20T16:22:03.416Z,6.20
2022-11-20T16:24:31.494Z,6.20
2022-11-20T16:26:59.222Z,6.30
2022-11-20T16:29:26.959Z,6.30
2022-11-20T16:31:54.664Z,6.30
2022-11-20T16:34:22.336Z,6.30
2022-11-20T16:36:50.026Z,6.30
2022-11-20T16:39:23.353Z,6.30
2022-11-20T16:41:51.704Z,6.30
2022-11-20T16:44:19.365Z,6.30
2022-11-20T16:46:47.060Z,6.30
2022-11-20T16:49:15.257Z,6.30
2022-11-20T16:51:43.092Z,6.30
2022-11-20T16:54:13.065Z,6.20
2022-11-20T16:56:44.242Z,6.30
2022-11-20T16:59:11.934Z,6.30
2022-11-20T17:01:41.725Z,6.30
2022-11-20T17:04:09.502Z,6.30
2022-11-20T17:06:38.009Z,6.30
2022-11-20T17:09:05.880Z,6.30
2022-11-20T17:11:34.666Z,6.30
2022-11-20T17:14:03.908Z,6.30
2022-11-20T17:16:31.857Z,6.30
2022-11-20T17:19:03.451Z,6.30
2022-11-20T17:21:31.872Z,6.30
2022-11-20T17:24:01.478Z,6.30
2022-11-20T17:26:29.212Z,6.30
2022-11-20T17:28:58.302Z,6.30
2022-11-20T17:31:27.918Z,6.30
2022-11-20T17:33:55.721Z,6.20
2022-11-20T17:36:23.482Z,6.30
2022-11-20T17:38:51.974Z,6.30
2022-11-20T17:41:22.155Z,6.30
2022-11-20T17:43:50.241Z,6.30
2022-11-20T17:46:18.678Z,6.30
2022-11-20T17:48:48.803Z,6.30
2022-11-20T17:51:17.122Z,6.20
2022-11-20T17:53:45.592Z,6.20
2022-11-20T17:56:31.089Z,6.10
2022-11-20T17:58:58.987Z,6.10
2022-11-20T18:01:26.712Z,6.10
2022-11-20T18:03:57.097Z,6.10
2022-11-20T18:06:25.949Z,6.10
2022-11-20T18:08:53.782Z,6.20
2022-11-20T18:11:22.444Z,6.20
2022-11-20T18:14:08.734Z,6.20
2022-11-20T18:16:37.897Z,6.20
2022-11-20T18:19:06.948Z,6.30
2022-11-20T18:21:34.630Z,6.30
2022-11-20T18:24:02.415Z,6.30
2022-11-20T18:26:30.113Z,6.30
2022-11-20T18:28:57.871Z,6.30
2022-11-20T18:31:25.554Z,6.30
2022-11-20T18:33:54.825Z,6.30
2022-11-20T18:36:24.825Z,6.30
2022-11-20T18:38:53.380Z,6.10
2022-11-20T18:41:39.324Z,6.00
2022-11-20T18:44:25.710Z,5.90
2022-11-20T18:46:53.695Z,5.90
2022-11-20T18:49:21.387Z,5.70
2022-11-20T18:51:50.666Z,5.70
2022-11-20T18:54:18.355Z,5.70
2022-11-20T18:56:46.141Z,5.80
2022-11-20T18:59:14.162Z,5.80
2022-11-20T19:01:41.961Z,5.80
2022-11-20T19:04:10.324Z,5.80
2022-11-20T19:06:39.066Z,5.90
2022-11-20T19:09:09.204Z,5.90
2022-11-20T19:11:37.254Z,5.90
2022-11-20T19:14:04.950Z,5.90
2022-11-20T19:16:32.821Z,6.00
2022-11-20T19:19:03.426Z,6.00
2022-11-20T19:21:31.417Z,6.10
2022-11-20T19:23:59.712Z,6.10
2022-11-20T19:26:29.022Z,6.10
2022-11-20T19:28:56.701Z,6.10
2022-11-20T19:31:26.795Z,6.10
2022-11-20T19:33:55.715Z,6.10
2022-11-20T19:36:24.377Z,6.10
2022-11-20T19:38:52.696Z,6.10
2022-11-20T19:41:21.109Z,6.10
2022-11-20T19:43:50.589Z,6.20
2022-11-20T19:46:20.489Z,6.20
2022-11-20T19:48:48.197Z,6.20
2022-11-20T19:51:17.227Z,6.20
2022-11-20T19:53:45.229Z,6.20
2022-11-20T19:56:13.309Z,6.20
2022-11-20T19:58:41.344Z,6.20
2022-11-20T20:01:11.303Z,6.20
2022-11-20T20:03:39.213Z,6.20
2022-11-20T20:06:08.422Z,6.20
2022-11-20T20:08:36.284Z,6.20
2022-11-20T20:11:10.601Z,6.20
2022-11-20T20:13:38.287Z,6.20
2022-11-20T20:16:07.144Z,6.20
2022-11-20T20:18:36.260Z,6.20
2022-11-20T20:21:05.202Z,6.10
2022-11-20T20:23:32.990Z,6.10
2022-11-20T20:26:00.865Z,6.20
2022-11-20T20:28:28.983Z,6.10
2022-11-20T20:30:56.668Z,6.10
2022-11-20T20:33:24.629Z,6.10
2022-11-20T20:35:53.653Z,6.10
2022-11-20T20:38:22.267Z,6.10
2022-11-20T20:40:50.392Z,6.10
2022-11-20T20:43:18.299Z,6.10
2022-11-20T20:45:47.028Z,6.10
2022-11-20T20:48:15.150Z,6.10
2022-11-20T20:50:43.245Z,6.00
2022-11-20T20:53:12.204Z,6.00
2022-11-20T20:55:39.870Z,6.00
2022-11-20T20:58:07.531Z,6.00
2022-11-20T21:00:35.248Z,6.00
2022-11-20T21:03:02.938Z,6.00
2022-11-20T21:05:30.634Z,6.10
2022-11-20T21:08:14.914Z,6.10
2022-11-20T21:10:44.062Z,6.00
2022-11-20T21:13:11.734Z,6.00
2022-11-20T21:15:39.571Z,6.00
2022-11-20T21:18:07.372Z,6.00
2022-11-20T21:20:48.993Z,6.00
2022-11-20T21:23:16.688Z,5.90
2022-11-20T21:25:45.699Z,5.90
2022-11-20T21:28:18.079Z,5.80
2022-11-20T21:30:46.346Z,5.80
2022-11-20T21:33:14.288Z,5.80
2022-11-20T21:35:42.211Z,5.70
2022-11-20T21:38:09.912Z,5.70
2022-11-20T21:40:37.606Z,5.60
2022-11-20T21:43:06.690Z,5.60
2022-11-20T21:45:34.399Z,5.50
2022-11-20T21:48:02.102Z,5.50
2022-11-20T21:50:29.917Z,5.50
2022-11-20T21:52:57.620Z,5.50
2022-11-20T21:55:25.322Z,5.50
2022-11-20T21:57:52.995Z,5.50
2022-11-20T22:00:22.253Z,5.60
2022-11-20T22:02:49.971Z,5.60
2022-11-20T22:05:17.641Z,5.60
2022-11-20T22:07:45.629Z,5.60
2022-11-20T22:10:18.285Z,5.60
2022-11-20T22:12:46.568Z,5.60
2022-11-20T22:15:13.274Z,5.70
2022-11-20T22:17:59.751Z,5.70
2022-11-20T22:20:27.410Z,5.70
2022-11-20T22:22:55.100Z,5.70
2022-11-20T22:25:22.884Z,5.80
2022-11-20T22:27:50.568Z,5.80
2022-11-20T22:30:18.260Z,5.80
2022-11-20T22:32:47.293Z,5.90
2022-11-20T22:35:15.061Z,5.80
2022-11-20T22:37:42.760Z,5.90
2022-11-20T22:40:10.952Z,5.80
2022-11-20T22:42:38.642Z,5.90
2022-11-20T22:45:07.199Z,5.90
2022-11-20T22:47:34.937Z,5.90
2022-11-20T22:50:04.261Z,5.90
2022-11-20T22:52:31.934Z,5.90
2022-11-20T22:54:59.738Z,6.00
2022-11-20T22:57:27.424Z,5.90
2022-11-20T22:59:55.092Z,6.00
2022-11-20T23:02:22.791Z,6.00
2022-11-20T23:04:50.550Z,5.90
2022-11-20T23:07:19.581Z,6.00
2022-11-20T23:09:47.311Z,6.00
2022-11-20T23:12:15.002Z,6.00
2022-11-20T23:14:42.677Z,6.00
2022-11-20T23:17:10.609Z,6.00
2022-11-20T23:19:38.314Z,6.00
2022-11-20T23:22:05.992Z,6.00
2022-11-20T23:24:35.046Z,6.00
2022-11-20T23:27:02.756Z,6.00
2022-11-20T23:29:30.509Z,6.00
2022-11-20T23:31:58.317Z,6.00
2022-11-20T23:34:26.233Z,6.00
2022-11-20T23:36:54.133Z,5.90
2022-11-20T23:39:21.822Z,5.90
2022-11-20T23:41:50.849Z,5.90
2022-11-20T23:44:18.521Z,5.90
2022-11-20T23:46:46.223Z,5.90
2022-11-20T23:49:13.898Z,5.90
2022-11-20T23:51:41.628Z,5.90
2022-11-20T23:54:09.696Z,5.80
2022-11-20T23:56:37.390Z,5.80
2022-11-20T23:59:08.293Z,5.80
